createdAt,value
2022-09-30T00:02:18.471Z,99006.06
2022-09-30T00:04:45.651Z,99008.94
2022-09-30T00:07:12.410Z,99001.59
2022-09-30T00:09:39.339Z,99004.28
2022-09-30T00:12:06.481Z,99006.91
2022-09-30T00:14:33.236Z,98996.94
2022-09-30T00:17:00.107Z,98988.00
2022-09-30T00:19:27.067Z,98991.38
2022-09-30T00:21:53.763Z,98993.75
2022-09-30T00:24:21.126Z,98996.84
2022-09-30T00:26:48.043Z,98995.06
2022-09-30T00:29:14.756Z,98990.62
2022-09-30T00:31:41.695Z,98994.37
2022-09-30T00:34:09.327Z,98988.09
2022-09-30T00:36:38.148Z,98981.00
2022-09-30T00:39:06.128Z,98986.31
2022-09-30T00:41:33.102Z,98979.44
2022-09-30T00:43:59.802Z,98976.94
2022-09-30T00:46:35.242Z,98973.97
2022-09-30T00:49:04.396Z,98975.75
2022-09-30T00:51:35.891Z,98971.84
2022-09-30T00:54:07.406Z,98970.72
2022-09-30T00:56:34.888Z,98966.91
2022-09-30T00:59:04.572Z,98966.91
2022-09-30T01:01:31.594Z,98965.75
2022-09-30T01:04:05.978Z,98970.44
2022-09-30T01:06:32.897Z,98968.66
2022-09-30T01:08:59.697Z,98969.22
2022-09-30T01:11:27.326Z,98975.22
2022-09-30T01:13:55.275Z,98974.97
2022-09-30T01:16:22.022Z,98963.66
2022-09-30T01:18:51.587Z,98975.62
2022-09-30T01:21:30.632Z,98989.59
2022-09-30T01:24:03.464Z,98979.13
2022-09-30T01:26:59.954Z,98979.91
2022-09-30T01:29:38.481Z,98959.72
2022-09-30T01:32:05.386Z,98957.59
2022-09-30T01:34:37.476Z,98965.91
2022-09-30T01:37:10.186Z,98987.47
2022-09-30T01:39:43.292Z,98973.63
2022-09-30T01:42:10.156Z,98975.34
2022-09-30T01:44:55.967Z,98980.53
2022-09-30T01:47:25.369Z,98975.06
2022-09-30T01:49:55.219Z,98960.97
2022-09-30T01:52:29.100Z,98951.19
2022-09-30T01:54:59.275Z,98942.56
2022-09-30T01:57:25.911Z,98941.41
2022-09-30T02:00:00.732Z,98945.09
2022-09-30T02:02:28.435Z,98943.72
2022-09-30T02:04:57.702Z,98941.50
2022-09-30T02:07:26.170Z,98942.37
2022-09-30T02:09:55.141Z,98943.72
2022-09-30T02:12:22.727Z,98939.94
2022-09-30T02:15:09.650Z,98931.50
2022-09-30T02:17:40.629Z,98940.41
2022-09-30T02:20:08.241Z,98936.97
2022-09-30T02:22:42.513Z,98945.66
2022-09-30T02:25:11.524Z,98966.91
2022-09-30T02:27:42.368Z,98972.00
2022-09-30T02:30:09.675Z,98967.94
2022-09-30T02:32:44.535Z,98969.91
2022-09-30T02:35:20.026Z,98960.97
2022-09-30T02:37:50.378Z,98950.84
2022-09-30T02:40:32.466Z,98941.03
2022-09-30T02:42:59.102Z,98904.16
2022-09-30T02:45:26.944Z,98914.09
2022-09-30T02:47:56.611Z,98914.31
2022-09-30T02:50:26.918Z,98926.84
2022-09-30T02:53:12.797Z,98928.47
2022-09-30T02:55:39.521Z,98918.34
2022-09-30T02:58:09.432Z,98912.31
2022-09-30T03:00:36.113Z,98911.94
2022-09-30T03:03:05.291Z,98908.34
2022-09-30T03:05:32.260Z,98907.84
2022-09-30T03:07:58.897Z,98898.03
2022-09-30T03:10:25.553Z,98903.53
2022-09-30T03:12:55.512Z,98905.06
2022-09-30T03:15:25.019Z,98898.63
2022-09-30T03:17:59.566Z,98894.28
2022-09-30T03:20:32.374Z,98901.66
2022-09-30T03:23:08.336Z,98900.00
2022-09-30T03:25:40.921Z,98907.25
2022-09-30T03:28:25.150Z,98922.69
2022-09-30T03:31:10.469Z,98931.22
2022-09-30T03:33:40.166Z,98936.75
2022-09-30T03:36:06.837Z,98931.09
2022-09-30T03:38:36.757Z,98932.34
2022-09-30T03:41:06.419Z,98922.72
2022-09-30T03:43:33.678Z,98927.19
2022-09-30T03:46:06.953Z,98924.66
2022-09-30T03:48:34.073Z,98928.22
2022-09-30T03:51:00.746Z,98928.28
2022-09-30T03:53:28.589Z,98917.47
2022-09-30T03:55:55.524Z,98921.19
2022-09-30T03:58:23.530Z,98928.81
2022-09-30T04:00:51.218Z,98924.56
2022-09-30T04:03:21.612Z,98922.41
2022-09-30T04:05:48.341Z,98936.72
2022-09-30T04:08:15.127Z,98925.00
2022-09-30T04:10:42.425Z,98931.47
2022-09-30T04:13:09.499Z,98930.81
2022-09-30T04:15:36.332Z,98927.97
2022-09-30T04:18:04.103Z,98927.84
2022-09-30T04:20:31.043Z,98926.44
2022-09-30T04:22:58.766Z,98927.56
2022-09-30T04:25:26.286Z,98939.19
2022-09-30T04:27:53.100Z,98935.22
2022-09-30T04:30:24.574Z,98931.56
2022-09-30T04:32:52.680Z,98932.19
2022-09-30T04:35:19.674Z,98943.00
2022-09-30T04:37:47.031Z,98943.00
2022-09-30T04:40:14.866Z,98955.31
2022-09-30T04:42:42.929Z,98964.03
2022-09-30T04:45:12.767Z,98967.81
2022-09-30T04:47:43.386Z,98969.28
2022-09-30T04:50:10.383Z,98976.69
2022-09-30T04:52:38.407Z,98975.75
2022-09-30T04:55:05.609Z,98986.34
2022-09-30T04:57:32.280Z,98975.72
2022-09-30T04:59:59.492Z,98982.59
2022-09-30T05:02:26.507Z,98978.16
2022-09-30T05:04:54.584Z,98974.41
2022-09-30T05:07:22.088Z,98982.69
2022-09-30T05:09:49.257Z,98970.19
2022-09-30T05:12:16.336Z,98980.06
2022-09-30T05:14:43.182Z,98975.53
2022-09-30T05:17:10.557Z,98983.47
2022-09-30T05:19:37.255Z,98988.91
2022-09-30T05:22:03.900Z,98982.78
2022-09-30T05:24:30.989Z,98973.81
2022-09-30T05:26:57.650Z,98983.38
2022-09-30T05:29:24.380Z,98991.16
2022-09-30T05:31:51.422Z,98994.97
2022-09-30T05:34:18.170Z,98995.03
2022-09-30T05:36:44.874Z,98994.78
2022-09-30T05:39:12.109Z,98997.97
2022-09-30T05:41:38.843Z,98991.56
2022-09-30T05:44:06.324Z,98997.09
2022-09-30T05:46:33.345Z,99000.94
2022-09-30T05:49:00.142Z,99005.34
2022-09-30T05:51:26.932Z,99001.19
2022-09-30T05:53:53.932Z,99003.22
2022-09-30T05:56:20.649Z,99003.28
2022-09-30T05:58:47.466Z,99006.62
2022-09-30T06:01:15.577Z,99006.22
2022-09-30T06:03:43.275Z,99002.72
2022-09-30T06:06:10.237Z,99000.63
2022-09-30T06:08:37.021Z,99015.91
2022-09-30T06:11:10.199Z,99008.34
2022-09-30T06:13:37.442Z,99015.22
2022-09-30T06:16:05.523Z,99009.63
2022-09-30T06:18:32.963Z,99013.31
2022-09-30T06:21:00.356Z,99006.38
2022-09-30T06:23:27.458Z,99017.72
2022-09-30T06:25:54.389Z,99021.25
2022-09-30T06:28:21.868Z,99020.47
2022-09-30T06:30:49.024Z,99029.66
2022-09-30T06:33:15.769Z,99030.81
2022-09-30T06:35:44.904Z,99045.22
2022-09-30T06:38:12.059Z,99040.81
2022-09-30T06:40:38.765Z,99044.34
2022-09-30T06:43:05.497Z,99045.72
2022-09-30T06:45:33.435Z,99036.53
2022-09-30T06:48:01.519Z,99044.34
2022-09-30T06:50:29.704Z,99050.63
2022-09-30T06:53:29.776Z,99052.25
2022-09-30T06:55:57.138Z,99052.00
2022-09-30T06:58:26.767Z,99063.41
2022-09-30T07:01:01.419Z,99071.25
2022-09-30T07:03:31.638Z,99070.63
2022-09-30T07:05:59.419Z,99066.38
2022-09-30T07:08:29.071Z,99060.56
2022-09-30T07:10:56.244Z,99071.75
2022-09-30T07:13:23.130Z,99078.31
2022-09-30T07:15:52.218Z,99076.78
2022-09-30T07:18:20.595Z,99084.91
2022-09-30T07:20:50.886Z,99084.91
2022-09-30T07:23:17.791Z,99089.97
2022-09-30T07:25:51.648Z,99087.34
2022-09-30T07:28:18.350Z,99092.81
2022-09-30T07:30:45.380Z,99086.09
2022-09-30T07:33:16.570Z,99096.91
2022-09-30T07:35:56.295Z,99098.91
2022-09-30T07:38:26.017Z,99107.75
2022-09-30T07:40:58.206Z,99103.19
2022-09-30T07:43:25.533Z,99112.38
2022-09-30T07:45:52.228Z,99107.56
2022-09-30T07:48:57.491Z,99111.19
2022-09-30T07:51:27.007Z,99110.75
2022-09-30T07:53:54.467Z,99120.31
2022-09-30T07:56:21.933Z,99124.78
2022-09-30T07:58:49.225Z,99126.34
2022-09-30T08:01:17.213Z,99125.50
2022-09-30T08:03:47.227Z,99123.38
2022-09-30T08:06:15.142Z,99137.09
2022-09-30T08:08:42.184Z,99130.28
2022-09-30T08:11:09.194Z,99131.09
2022-09-30T08:13:36.086Z,99140.19
2022-09-30T08:16:02.805Z,99139.53
2022-09-30T08:18:29.929Z,99137.06
2022-09-30T08:20:56.729Z,99148.06
2022-09-30T08:23:23.441Z,99149.69
2022-09-30T08:25:50.439Z,99160.31
2022-09-30T08:28:18.362Z,99156.56
2022-09-30T08:30:45.092Z,99166.22
2022-09-30T08:33:12.028Z,99171.53
2022-09-30T08:35:38.723Z,99171.16
2022-09-30T08:38:05.404Z,99183.31
2022-09-30T08:40:33.325Z,99183.16
2022-09-30T08:43:03.076Z,99188.47
2022-09-30T08:45:35.697Z,99192.13
2022-09-30T08:48:08.866Z,99191.34
2022-09-30T08:50:40.759Z,99202.59
2022-09-30T08:53:12.038Z,99200.81
2022-09-30T08:55:40.141Z,99202.09
2022-09-30T08:58:07.452Z,99189.75
2022-09-30T09:00:34.185Z,99196.66
2022-09-30T09:03:01.119Z,99196.44
2022-09-30T09:05:34.030Z,99198.81
2022-09-30T09:08:03.817Z,99197.88
2022-09-30T09:10:34.391Z,99201.34
2022-09-30T09:13:01.312Z,99199.75
2022-09-30T09:15:33.662Z,99213.12
2022-09-30T09:18:22.747Z,99215.03
2022-09-30T09:20:54.936Z,99213.31
2022-09-30T09:23:22.084Z,99220.47
2022-09-30T09:25:52.961Z,99224.66
2022-09-30T09:28:33.784Z,99227.97
2022-09-30T09:31:01.724Z,99234.34
2022-09-30T09:33:29.799Z,99235.75
2022-09-30T09:36:08.920Z,99243.84
2022-09-30T09:38:39.402Z,99246.25
2022-09-30T09:41:12.942Z,99240.16
2022-09-30T09:43:52.067Z,99245.31
2022-09-30T09:46:26.616Z,99253.75
2022-09-30T09:49:13.033Z,99248.59
2022-09-30T09:51:40.993Z,99251.94
2022-09-30T09:54:08.945Z,99253.31
2022-09-30T09:56:37.852Z,99257.66
2022-09-30T09:59:05.312Z,99263.25
2022-09-30T10:01:42.678Z,99270.31
2022-09-30T10:04:17.782Z,99260.69
2022-09-30T10:06:59.964Z,99255.72
2022-09-30T10:09:37.032Z,99264.66
2022-09-30T10:12:06.830Z,99264.84
2022-09-30T10:14:46.242Z,99259.34
2022-09-30T10:17:20.090Z,99253.25
2022-09-30T10:19:49.787Z,99259.53
2022-09-30T10:22:17.466Z,99276.13
2022-09-30T10:24:44.252Z,99273.00
2022-09-30T10:27:30.727Z,99271.91
2022-09-30T10:29:57.418Z,99281.56
2022-09-30T10:32:24.519Z,99284.91
2022-09-30T10:34:55.105Z,99293.69
2022-09-30T10:37:22.412Z,99288.25
2022-09-30T10:40:01.412Z,99281.62
2022-09-30T10:42:29.742Z,99284.75
2022-09-30T10:44:57.527Z,99297.84
2022-09-30T10:47:26.326Z,99307.13
2022-09-30T10:50:07.188Z,99303.97
2022-09-30T10:52:35.203Z,99302.97
2022-09-30T10:55:14.724Z,99306.06
2022-09-30T10:57:43.342Z,99303.91
2022-09-30T11:00:10.121Z,99318.41
2022-09-30T11:02:37.086Z,99313.28
2022-09-30T11:05:24.596Z,99322.69
2022-09-30T11:07:57.351Z,99337.19
2022-09-30T11:10:33.248Z,99342.38
2022-09-30T11:13:20.229Z,99352.63
2022-09-30T11:16:11.668Z,99359.09
2022-09-30T11:18:38.389Z,99368.84
2022-09-30T11:21:07.376Z,99376.75
2022-09-30T11:23:36.253Z,99385.63
2022-09-30T11:26:05.631Z,99387.81
2022-09-30T11:28:42.038Z,99393.34
2022-09-30T11:31:13.724Z,99399.47
2022-09-30T11:33:44.147Z,99404.38
2022-09-30T11:36:10.824Z,99408.44
2022-09-30T11:38:46.462Z,99415.34
2022-09-30T11:41:30.428Z,99408.03
2022-09-30T11:43:57.101Z,99416.53
2022-09-30T11:46:33.447Z,99421.19
2022-09-30T11:49:24.761Z,99417.69
2022-09-30T11:52:04.262Z,99421.84
2022-09-30T11:54:40.547Z,99432.38
2022-09-30T11:57:08.614Z,99439.97
2022-09-30T11:59:42.893Z,99441.78
2022-09-30T12:02:26.860Z,99443.69
2022-09-30T12:04:58.361Z,99443.88
2022-09-30T12:07:38.711Z,99449.00
2022-09-30T12:10:27.246Z,99448.34
2022-09-30T12:12:58.360Z,99448.16
2022-09-30T12:15:27.143Z,99465.94
2022-09-30T12:17:57.479Z,99466.87
2022-09-30T12:20:36.490Z,99469.00
2022-09-30T12:23:23.800Z,99468.63
2022-09-30T12:26:01.197Z,99469.84
2022-09-30T12:28:47.201Z,99467.50
2022-09-30T12:31:36.138Z,99473.19
2022-09-30T12:34:03.971Z,99481.28
2022-09-30T12:36:50.918Z,99480.09
2022-09-30T12:39:17.991Z,99478.13
2022-09-30T12:41:48.375Z,99484.63
2022-09-30T12:44:41.041Z,99477.91
2022-09-30T12:47:08.111Z,99480.19
2022-09-30T12:49:35.252Z,99486.50
2022-09-30T12:52:05.479Z,99497.53
2022-09-30T12:54:36.293Z,99493.66
2022-09-30T12:57:04.102Z,99499.19
2022-09-30T12:59:32.170Z,99516.50
2022-09-30T13:01:59.494Z,99515.56
2022-09-30T13:04:29.543Z,99522.28
2022-09-30T13:06:56.280Z,99519.31
2022-09-30T13:09:55.856Z,99525.88
2022-09-30T13:12:30.463Z,99519.88
2022-09-30T13:15:17.398Z,99515.69
2022-09-30T13:17:45.896Z,99515.94
2022-09-30T13:20:31.459Z,99525.47
2022-09-30T13:22:59.997Z,99529.50
2022-09-30T13:25:27.495Z,99536.75
2022-09-30T13:28:21.206Z,99542.94
2022-09-30T13:30:48.268Z,99553.84
2022-09-30T13:33:28.299Z,99557.75
2022-09-30T13:35:57.657Z,99562.09
2022-09-30T13:38:33.685Z,99578.97
2022-09-30T13:41:06.867Z,99584.31
2022-09-30T13:43:43.469Z,99578.94
2022-09-30T13:46:17.283Z,99580.06
2022-09-30T13:49:10.249Z,99569.13
2022-09-30T13:51:38.006Z,99583.78
2022-09-30T13:54:30.249Z,99578.19
2022-09-30T13:56:57.389Z,99569.03
2022-09-30T13:59:24.598Z,99561.69
2022-09-30T14:01:55.895Z,99567.75
2022-09-30T14:04:32.128Z,99555.06
2022-09-30T14:07:14.228Z,99556.00
2022-09-30T14:09:41.132Z,99553.09
2022-09-30T14:12:12.353Z,99546.31
2022-09-30T14:15:00.610Z,99548.31
2022-09-30T14:17:46.326Z,99553.84
2022-09-30T14:20:23.044Z,99560.63
2022-09-30T14:22:50.201Z,99571.69
2022-09-30T14:25:17.825Z,99573.50
2022-09-30T14:28:04.948Z,99564.50
2022-09-30T14:30:34.442Z,99568.38
2022-09-30T14:33:11.234Z,99564.16
2022-09-30T14:35:41.118Z,99576.50
2022-09-30T14:38:08.586Z,99569.31
2022-09-30T14:40:36.348Z,99571.16
2022-09-30T14:43:04.973Z,99565.84
2022-09-30T14:45:33.047Z,99565.50
2022-09-30T14:48:02.401Z,99556.59
2022-09-30T14:50:31.352Z,99565.59
2022-09-30T14:53:00.478Z,99559.87
2022-09-30T14:55:31.365Z,99566.94
2022-09-30T14:58:21.576Z,99574.13
2022-09-30T15:01:08.562Z,99573.94
2022-09-30T15:03:37.032Z,99576.72
2022-09-30T15:06:03.902Z,99584.25
2022-09-30T15:08:30.588Z,99587.72
2022-09-30T15:10:57.530Z,99587.81
2022-09-30T15:13:25.135Z,99586.09
2022-09-30T15:15:51.879Z,99586.38
2022-09-30T15:18:25.910Z,99602.31
2022-09-30T15:20:54.461Z,99594.28
2022-09-30T15:23:24.462Z,99596.84
2022-09-30T15:25:52.808Z,99609.97
2022-09-30T15:28:19.534Z,99599.72
2022-09-30T15:30:46.497Z,99606.06
2022-09-30T15:33:17.801Z,99613.56
2022-09-30T15:35:45.272Z,99621.63
2022-09-30T15:38:14.918Z,99617.22
2022-09-30T15:40:50.276Z,99623.91
2022-09-30T15:43:36.706Z,99628.91
2022-09-30T15:46:27.312Z,99633.91
2022-09-30T15:48:55.767Z,99624.25
2022-09-30T15:51:41.250Z,99631.50
2022-09-30T15:54:15.349Z,99633.31
2022-09-30T15:56:43.294Z,99635.22
2022-09-30T15:59:14.949Z,99640.47
2022-09-30T16:01:49.197Z,99647.66
2022-09-30T16:04:16.874Z,99650.09
2022-09-30T16:06:48.699Z,99657.09
2022-09-30T16:09:38.494Z,99650.97
2022-09-30T16:12:12.952Z,99654.66
2022-09-30T16:14:45.053Z,99654.03
2022-09-30T16:17:18.265Z,99653.16
2022-09-30T16:19:52.657Z,99653.25
2022-09-30T16:22:41.793Z,99658.87
2022-09-30T16:25:35.255Z,99656.00
2022-09-30T16:28:12.692Z,99665.00
2022-09-30T16:30:48.089Z,99675.59
2022-09-30T16:33:16.797Z,99668.56
2022-09-30T16:35:49.625Z,99669.81
2022-09-30T16:38:17.420Z,99663.78
2022-09-30T16:40:44.122Z,99670.09
2022-09-30T16:43:13.844Z,99671.59
2022-09-30T16:45:43.860Z,99680.78
2022-09-30T16:48:23.907Z,99672.09
2022-09-30T16:51:14.533Z,99677.59
2022-09-30T16:53:41.786Z,99688.53
2022-09-30T16:56:14.448Z,99696.31
2022-09-30T16:58:42.846Z,99688.84
2022-09-30T17:01:20.720Z,99700.72
2022-09-30T17:03:47.726Z,99699.88
2022-09-30T17:06:15.281Z,99699.19
2022-09-30T17:08:44.329Z,99708.16
2022-09-30T17:11:11.455Z,99706.03
2022-09-30T17:13:38.674Z,99700.47
2022-09-30T17:16:05.573Z,99692.31
2022-09-30T17:18:32.653Z,99695.03
2022-09-30T17:21:01.308Z,99708.22
2022-09-30T17:23:28.111Z,99703.22
2022-09-30T17:25:55.028Z,99712.41
2022-09-30T17:28:22.484Z,99704.25
2022-09-30T17:30:50.425Z,99702.59
2022-09-30T17:33:18.970Z,99708.47
2022-09-30T17:35:46.259Z,99705.66
2022-09-30T17:38:13.180Z,99708.22
2022-09-30T17:40:58.626Z,99716.66
2022-09-30T17:43:25.548Z,99728.22
2022-09-30T17:45:52.465Z,99722.81
2022-09-30T17:48:19.311Z,99727.37
2022-09-30T17:50:46.990Z,99724.66
2022-09-30T17:53:14.378Z,99737.19
2022-09-30T17:55:41.628Z,99740.47
2022-09-30T17:58:09.372Z,99740.31
2022-09-30T18:00:36.835Z,99745.06
2022-09-30T18:03:04.235Z,99745.16
2022-09-30T18:05:31.959Z,99742.50
2022-09-30T18:07:58.846Z,99746.09
2022-09-30T18:10:25.935Z,99734.72
2022-09-30T18:12:53.057Z,99740.78
2022-09-30T18:15:20.657Z,99746.94
2022-09-30T18:17:47.881Z,99752.31
2022-09-30T18:20:14.972Z,99749.66
2022-09-30T18:22:41.663Z,99753.16
2022-09-30T18:25:20.917Z,99748.03
2022-09-30T18:27:49.651Z,99742.03
2022-09-30T18:30:18.838Z,99750.09
2022-09-30T18:32:49.656Z,99755.47
2022-09-30T18:35:18.537Z,99752.06
2022-09-30T18:37:47.756Z,99761.09
2022-09-30T18:40:17.414Z,99755.47
2022-09-30T18:42:44.342Z,99767.81
2022-09-30T18:45:12.701Z,99774.84
2022-09-30T18:47:41.227Z,99775.69
2022-09-30T18:50:14.149Z,99788.78
2022-09-30T18:52:41.128Z,99790.47
2022-09-30T18:55:09.808Z,99780.00
2022-09-30T18:57:36.608Z,99772.78
2022-09-30T19:00:04.131Z,99774.41
2022-09-30T19:02:34.637Z,99786.63
2022-09-30T19:05:01.589Z,99787.87
2022-09-30T19:07:29.088Z,99794.22
2022-09-30T19:09:55.833Z,99791.53
2022-09-30T19:12:22.639Z,99796.03
2022-09-30T19:14:49.659Z,99792.31
2022-09-30T19:17:17.070Z,99806.19
2022-09-30T19:19:46.130Z,99809.69
2022-09-30T19:22:13.646Z,99806.38
2022-09-30T19:24:42.766Z,99818.59
2022-09-30T19:27:11.224Z,99830.75
2022-09-30T19:29:39.522Z,99853.81
2022-09-30T19:32:10.280Z,99839.84
2022-09-30T19:34:39.031Z,99827.34
2022-09-30T19:37:08.018Z,99829.84
2022-09-30T19:39:45.812Z,99830.59
2022-09-30T19:42:14.487Z,99827.97
2022-09-30T19:44:42.012Z,99821.78
2022-09-30T19:47:09.536Z,99833.09
2022-09-30T19:49:37.564Z,99835.03
2022-09-30T19:52:18.051Z,99831.72
2022-09-30T19:54:48.990Z,99834.44
2022-09-30T19:57:16.144Z,99835.19
2022-09-30T19:59:43.538Z,99827.03
2022-09-30T20:02:11.598Z,99827.06
2022-09-30T20:04:40.417Z,99831.28
2022-09-30T20:07:07.142Z,99820.91
2022-09-30T20:09:34.789Z,99828.63
2022-09-30T20:12:01.970Z,99818.41
2022-09-30T20:14:47.071Z,99815.75
2022-09-30T20:17:14.783Z,99821.62
2022-09-30T20:19:52.124Z,99822.69
2022-09-30T20:22:19.135Z,99818.31
2022-09-30T20:24:45.980Z,99806.09
2022-09-30T20:27:12.656Z,99822.06
2022-09-30T20:29:39.621Z,99823.69
2022-09-30T20:32:07.916Z,99820.53
2022-09-30T20:34:38.673Z,99814.75
2022-09-30T20:37:06.940Z,99819.94
2022-09-30T20:39:34.726Z,99819.22
2022-09-30T20:42:01.431Z,99809.59
2022-09-30T20:44:28.375Z,99804.28
2022-09-30T20:46:55.057Z,99797.19
2022-09-30T20:49:21.808Z,99783.38
2022-09-30T20:51:49.113Z,99786.91
2022-09-30T20:54:15.764Z,99791.41
2022-09-30T20:57:05.818Z,99790.69
2022-09-30T20:59:29.390Z,99794.97
2022-09-30T21:01:56.196Z,99788.63
2022-09-30T21:04:22.954Z,99799.09
2022-09-30T21:06:49.896Z,99789.38
2022-09-30T21:09:17.081Z,99786.94
2022-09-30T21:11:44.413Z,99792.75
2022-09-30T21:14:11.595Z,99795.03
2022-09-30T21:16:38.411Z,99798.25
2022-09-30T21:19:05.191Z,99798.97
2022-09-30T21:21:32.381Z,99797.38
2022-09-30T21:23:59.996Z,99792.12
2022-09-30T21:26:26.910Z,99790.34
2022-09-30T21:28:54.021Z,99795.63
2022-09-30T21:31:21.919Z,99792.00
2022-09-30T21:33:58.260Z,99805.91
2022-09-30T21:36:26.018Z,99812.06
2022-09-30T21:38:53.055Z,99818.37
2022-09-30T21:41:21.853Z,99827.06
2022-09-30T21:43:49.348Z,99821.03
2022-09-30T21:46:16.479Z,99819.91
2022-09-30T21:48:43.611Z,99793.53
2022-09-30T21:51:10.557Z,99807.44
2022-09-30T21:53:38.990Z,99804.06
2022-09-30T21:56:06.065Z,99806.66
2022-09-30T21:58:33.131Z,99796.25
2022-09-30T22:01:01.008Z,99796.94
2022-09-30T22:03:28.850Z,99814.47
2022-09-30T22:05:56.412Z,99836.44
2022-09-30T22:08:24.356Z,99825.63
2022-09-30T22:10:51.351Z,99823.91
2022-09-30T22:13:18.145Z,99818.53
2022-09-30T22:15:45.241Z,99819.69
2022-09-30T22:18:17.431Z,99811.03
2022-09-30T22:20:44.581Z,99804.13
2022-09-30T22:23:11.570Z,99799.09
2022-09-30T22:25:38.546Z,99792.88
2022-09-30T22:28:05.532Z,99783.12
2022-09-30T22:30:32.635Z,99791.66
2022-09-30T22:33:18.115Z,99791.16
2022-09-30T22:36:03.804Z,99795.34
2022-09-30T22:38:31.263Z,99789.34
2022-09-30T22:40:59.413Z,99786.72
2022-09-30T22:43:26.537Z,99788.41
2022-09-30T22:46:04.331Z,99787.66
2022-09-30T22:48:33.973Z,99778.66
2022-09-30T22:51:01.197Z,99774.31
2022-09-30T22:53:27.880Z,99771.78
2022-09-30T22:55:54.983Z,99769.25
2022-09-30T22:58:24.244Z,99763.88
2022-09-30T23:00:54.184Z,99765.97
2022-09-30T23:03:20.935Z,99774.63
2022-09-30T23:05:48.068Z,99771.69
2022-09-30T23:08:14.805Z,99779.41
2022-09-30T23:10:50.774Z,99787.84
2022-09-30T23:13:20.045Z,99786.66
2022-09-30T23:15:47.652Z,99783.94
2022-09-30T23:18:17.101Z,99772.87
2022-09-30T23:20:53.671Z,99774.50
2022-09-30T23:23:20.365Z,99778.81
2022-09-30T23:25:47.413Z,99773.47
2022-09-30T23:28:14.184Z,99778.56
2022-09-30T23:30:40.954Z,99783.78
2022-09-30T23:33:09.373Z,99774.19
2022-09-30T23:35:36.121Z,99774.50
2022-09-30T23:38:03.053Z,99769.88
2022-09-30T23:40:31.513Z,99765.56
2022-09-30T23:42:58.209Z,99763.69
2022-09-30T23:45:24.949Z,99757.69
2022-09-30T23:47:52.721Z,99755.09
2022-09-30T23:50:19.629Z,99753.31
2022-09-30T23:52:46.337Z,99749.66
2022-09-30T23:55:13.337Z,99734.59
2022-09-30T23:57:40.064Z,99726.94
